Daily Tabular Data
[Select Refresh to Update]


12/9/18
Time         Wind Dir   Wind Spd  Wind Gust     Hum In   Humidity    Temp In       Temp  Raw Barom   Tot Rain Wind Chill Heat Ix In Heat Index  Dew Point  DailyRain   HourRain   RainRate
                            mph        mph          %          %         F         F         in         in         F         F         F         F         in         in      in/hr
12:00am           163          1          1         49         85       67.7       52.8      29.42       3.30       52.8       68.4       57.7       48.4       0.00       0.00      0.000
12:30am           175          0          3         51         83       67.4       53.2      29.41       3.30       53.2       68.3       57.8       48.2       0.00       0.00      0.000
1:00am            151          0          3         51         82       67.2       53.0      29.41       3.30       53.0       68.1       57.5       47.7       0.00       0.00      0.000
1:30am            154          0          1         50         82       67.1       52.8      29.41       3.30       52.8       67.9       57.3       47.5       0.00       0.00      0.000
2:00am            167          0          2         50         81       67.0       53.0      29.42       3.30       53.0       67.8       57.4       47.3       0.00       0.00      0.000
2:30am            160          1          3         50         79       66.9       53.6      29.41       3.30       53.6       67.7       57.7       47.3       0.00       0.00      0.000
3:00am            168          0          3         50         78       66.8       54.5      29.40       3.30       54.5       67.6       58.5       47.8       0.00       0.00      0.000
3:30am            168          0          1         50         81       66.7       53.9      29.40       3.30       53.9       67.5       58.3       48.2       0.00       0.00      0.000
4:00am            167          1          1         49         78       66.6       54.2      29.40       3.30       54.2       67.3       58.2       47.5       0.00       0.00      0.000
4:30am            164          0          1         49         79       66.5       53.8      29.39       3.30       53.8       67.2       57.9       47.4       0.00       0.00      0.000
5:00am            171          0          3         49         77       66.4       53.7      29.39       3.30       53.7       67.1       57.5       46.7       0.00       0.00      0.000
5:30am            173          0          2         49         77       66.4       53.9      29.40       3.30       53.9       67.1       57.7       46.9       0.00       0.00      0.000
6:00am            172          0          2         49         77       66.3       53.5      29.40       3.30       53.5       67.0       57.3       46.5       0.00       0.00      0.000
6:30am            172          0          1         49         79       66.2       53.8      29.41       3.30       53.8       66.9       57.9       47.4       0.00       0.00      0.000
7:00am            174          0          2         48         79       66.1       53.4      29.43       3.30       53.4       66.7       57.5       47.1       0.00       0.00      0.000
7:30am            173          0          1         48         78       66.0       53.4      29.43       3.30       53.4       66.6       57.4       46.7       0.00       0.00      0.000
8:00am            165          0          2         48         74       65.9       56.8      29.43       3.30       56.8       66.5       60.2       48.6       0.00       0.00      0.000
8:30am            159          2          4         48         66       66.0       61.0      29.44       3.30       61.0       66.6       63.5       49.6       0.00       0.00      0.000
9:00am            208          0          3         48         62       66.4       66.4      29.45       3.30       66.4       67.0       68.4       53.0       0.00       0.00      0.000
9:30am            219          0          2         48         60       66.9       68.5      29.45       3.30       68.5       67.5       70.3       54.1       0.00       0.00      0.000
10:00am           355          0          1         48         58       67.0       65.4      29.44       3.30       65.4       67.6       67.0       50.3       0.00       0.00      0.000
10:30am           329          0          2         48         57       67.0       66.6      29.43       3.30       66.6       67.6       68.1       50.9       0.00       0.00      0.000
11:00am           279          0          3         49         55       66.9       70.5      29.41       3.30       70.5       67.6       71.8       53.6       0.00       0.00      0.000
11:30am           296          0          3         49         52       67.0       69.6      29.40       3.30       69.6       67.7       70.6       51.2       0.00       0.00      0.000
12:00pm            16          2          4         49         48       67.1       71.0      29.37       3.30       71.0       67.8       71.6       50.3       0.00       0.00      0.000
12:30pm            30          0          4         49         56       67.2       72.5      29.35       3.30       72.5       67.9       73.9       55.9       0.00       0.00      0.000
1:00pm            327          1          7         49         47       67.4       70.7      29.33       3.30       70.7       68.1       71.2       49.5       0.00       0.00      0.000
1:30pm             35          4          8         49         51       67.6       69.2      29.34       3.30       69.2       68.3       70.1       50.3       0.00       0.00      0.000
2:00pm             11          2         10         49         61       67.8       67.9      29.34       3.30       67.9       68.5       69.8       54.0       0.00       0.00      0.000
2:30pm             10          3         11         49         64       67.9       66.3      29.35       3.30       66.3       68.6       68.6       53.8       0.00       0.00      0.000
3:00pm             23          0          5         50         67       68.0       65.6      29.34       3.30       65.6       68.8       68.2       54.4       0.00       0.00      0.000
3:30pm            346          0          4         51         70       68.0       65.3      29.33       3.30       65.3       68.9       68.3       55.3       0.00       0.00      0.000
4:00pm            314          0          1         51         77       68.0       66.3      29.33       3.30       66.3       68.9       70.1       58.9       0.00       0.00      0.000
4:30pm            202          0          0         51         68       68.2       65.2      29.32       3.30       65.2       69.1       67.9       54.4       0.00       0.00      0.000
5:00pm            217          0          0         51         79       68.2       64.7      29.32       3.30       64.7       69.1       68.8       58.0       0.00       0.00      0.000
5:30pm            216          0          0         52         77       68.2       62.4      29.33       3.30       62.4       69.2       66.2       55.1       0.00       0.00      0.000
6:00pm            216          0          0         52         78       68.3       61.2      29.33       3.30       61.2       69.3       65.2       54.3       0.00       0.00      0.000
6:30pm            215          0          0         52         80       68.3       59.7      29.34       3.30       59.7       69.3       63.9       53.5       0.00       0.00      0.000
7:00pm            213          0          0         51         83       68.4       59.4      29.35       3.30       59.4       69.3       64.0       54.2       0.00       0.00      0.000
7:30pm            146          0          2         50         82       68.4       57.5      29.34       3.30       57.5       69.2       62.0       52.1       0.00       0.00      0.000
8:00pm            157          1          2         50         89       68.4       60.8      29.34       3.30       60.8       69.2       66.3       57.5       0.00       0.00      0.000
8:30pm            170          1          4         50         79       68.4       57.3      29.33       3.30       57.3       69.2       61.4       50.9       0.00       0.00      0.000
9:00pm            173          0          2         49         81       68.4       56.1      29.33       3.30       56.1       69.1       60.5       50.4       0.00       0.00      0.000
9:30pm            173          0          1         50         79       68.4       56.6      29.33       3.30       56.6       69.2       60.7       50.2       0.00       0.00      0.000
10:00pm           141          0          1         49         82       68.3       55.8      29.34       3.30       55.8       69.0       60.3       50.4       0.00       0.00      0.000
10:30pm           175          4          5         49         79       68.3       56.4      29.31       3.30       56.3       69.0       60.5       50.0       0.00       0.00      0.000
11:00pm           167          0          5         50         71       68.1       57.3      29.30       3.30       57.3       68.9       60.4       48.0       0.00       0.00      0.000
11:30pm           178          0          1         49         78       68.1       55.5      29.31       3.30       55.5       68.8       59.5       48.8       0.00       0.00      0.000